sensor_id;sensor_type;location;lat;lon;timestamp;temperature;humidity
48043;DHT22;33988;47.992;8.820;2022-10-16T00:01:42;17.60;69.20
48043;DHT22;33988;47.992;8.820;2022-10-16T00:04:10;17.60;69.30
48043;DHT22;33988;47.992;8.820;2022-10-16T00:06:37;17.60;69.30
48043;DHT22;33988;47.992;8.820;2022-10-16T00:09:04;17.60;69.30
48043;DHT22;33988;47.992;8.820;2022-10-16T00:11:39;17.60;69.40
48043;DHT22;33988;47.992;8.820;2022-10-16T00:14:10;17.60;69.40
48043;DHT22;33988;47.992;8.820;2022-10-16T00:16:41;17.50;69.40
48043;DHT22;33988;47.992;8.820;2022-10-16T00:19:09;17.60;69.40
48043;DHT22;33988;47.992;8.820;2022-10-16T00:21:41;17.60;69.40
48043;DHT22;33988;47.992;8.820;2022-10-16T00:24:10;17.30;69.60
48043;DHT22;33988;47.992;8.820;2022-10-16T00:26:40;17.50;69.40
48043;DHT22;33988;47.992;8.820;2022-10-16T00:29:07;17.50;69.30
48043;DHT22;33988;47.992;8.820;2022-10-16T00:31:39;17.50;69.40
48043;DHT22;33988;47.992;8.820;2022-10-16T00:34:11;17.50;69.40
48043;DHT22;33988;47.992;8.820;2022-10-16T00:36:37;17.50;69.40
48043;DHT22;33988;47.992;8.820;2022-10-16T00:39:04;17.50;69.40
48043;DHT22;33988;47.992;8.820;2022-10-16T00:41:34;17.50;69.40
48043;DHT22;33988;47.992;8.820;2022-10-16T00:44:04;17.50;69.50
48043;DHT22;33988;47.992;8.820;2022-10-16T00:47:27;17.50;69.40
48043;DHT22;33988;47.992;8.820;2022-10-16T00:50:13;17.50;69.50
48043;DHT22;33988;47.992;8.820;2022-10-16T00:52:46;17.50;69.50
48043;DHT22;33988;47.992;8.820;2022-10-16T00:55:20;17.50;69.50
48043;DHT22;33988;47.992;8.820;2022-10-16T00:57:48;17.50;69.50
48043;DHT22;33988;47.992;8.820;2022-10-16T01:00:20;17.50;69.50
48043;DHT22;33988;47.992;8.820;2022-10-16T01:02:59;17.40;69.40
48043;DHT22;33988;47.992;8.820;2022-10-16T01:05:35;17.40;69.50
48043;DHT22;33988;47.992;8.820;2022-10-16T01:08:34;17.40;69.50
48043;DHT22;33988;47.992;8.820;2022-10-16T01:11:18;17.40;69.50
48043;DHT22;33988;47.992;8.820;2022-10-16T01:13:52;17.40;69.50
48043;DHT22;33988;47.992;8.820;2022-10-16T01:16:34;17.40;69.40
48043;DHT22;33988;47.992;8.820;2022-10-16T01:22:09;17.30;69.40
48043;DHT22;33988;47.992;8.820;2022-10-16T01:27:26;17.30;69.30
48043;DHT22;33988;47.992;8.820;2022-10-16T01:30:15;17.30;69.30
48043;DHT22;33988;47.992;8.820;2022-10-16T01:32:57;17.30;69.40
48043;DHT22;33988;47.992;8.820;2022-10-16T01:35:32;17.30;69.30
48043;DHT22;33988;47.992;8.820;2022-10-16T01:40:53;17.30;69.50
48043;DHT22;33988;47.992;8.820;2022-10-16T01:43:36;17.30;69.30
48043;DHT22;33988;47.992;8.820;2022-10-16T01:46:12;17.30;69.40
48043;DHT22;33988;47.992;8.820;2022-10-16T01:48:43;17.30;69.40
48043;DHT22;33988;47.992;8.820;2022-10-16T01:51:14;17.30;69.40
48043;DHT22;33988;47.992;8.820;2022-10-16T01:53:44;17.30;69.40
48043;DHT22;33988;47.992;8.820;2022-10-16T01:56:18;17.30;69.50
48043;DHT22;33988;47.992;8.820;2022-10-16T01:58:54;17.30;69.60
48043;DHT22;33988;47.992;8.820;2022-10-16T02:01:27;17.30;69.60
48043;DHT22;33988;47.992;8.820;2022-10-16T02:03:59;17.30;69.50
48043;DHT22;33988;47.992;8.820;2022-10-16T02:06:30;17.30;69.50
48043;DHT22;33988;47.992;8.820;2022-10-16T02:09:01;17.30;69.60
48043;DHT22;33988;47.992;8.820;2022-10-16T02:11:28;17.20;69.50
48043;DHT22;33988;47.992;8.820;2022-10-16T02:14:06;17.30;69.60
48043;DHT22;33988;47.992;8.820;2022-10-16T02:16:39;17.20;69.60
48043;DHT22;33988;47.992;8.820;2022-10-16T02:19:16;17.30;69.60
48043;DHT22;33988;47.992;8.820;2022-10-16T02:21:50;17.20;69.50
48043;DHT22;33988;47.992;8.820;2022-10-16T02:24:32;17.30;69.60
48043;DHT22;33988;47.992;8.820;2022-10-16T02:27:11;17.20;69.50
48043;DHT22;33988;47.992;8.820;2022-10-16T02:30:23;17.20;69.60
48043;DHT22;33988;47.992;8.820;2022-10-16T02:32:53;17.20;69.70
48043;DHT22;33988;47.992;8.820;2022-10-16T02:35:21;17.30;70.40
48043;DHT22;33988;47.992;8.820;2022-10-16T02:37:50;17.30;69.60
48043;DHT22;33988;47.992;8.820;2022-10-16T02:40:18;17.20;69.50
48043;DHT22;33988;47.992;8.820;2022-10-16T02:42:52;17.20;69.60
48043;DHT22;33988;47.992;8.820;2022-10-16T02:45:22;17.20;69.60
48043;DHT22;33988;47.992;8.820;2022-10-16T02:47:49;17.20;69.60
48043;DHT22;33988;47.992;8.820;2022-10-16T02:50:21;17.20;69.70
48043;DHT22;33988;47.992;8.820;2022-10-16T02:52:48;17.20;69.70
48043;DHT22;33988;47.992;8.820;2022-10-16T02:55:18;17.20;69.70
48043;DHT22;33988;47.992;8.820;2022-10-16T02:57:50;17.30;69.80
48043;DHT22;33988;47.992;8.820;2022-10-16T03:00:17;17.20;69.70
48043;DHT22;33988;47.992;8.820;2022-10-16T03:02:47;17.20;69.70
48043;DHT22;33988;47.992;8.820;2022-10-16T03:05:16;17.20;69.60
48043;DHT22;33988;47.992;8.820;2022-10-16T03:07:53;17.20;69.60
48043;DHT22;33988;47.992;8.820;2022-10-16T03:10:22;17.20;69.70
48043;DHT22;33988;47.992;8.820;2022-10-16T03:12:52;17.20;69.60
48043;DHT22;33988;47.992;8.820;2022-10-16T03:15:18;17.20;69.60
48043;DHT22;33988;47.992;8.820;2022-10-16T03:17:48;17.20;69.60
48043;DHT22;33988;47.992;8.820;2022-10-16T03:20:15;17.20;69.60
48043;DHT22;33988;47.992;8.820;2022-10-16T03:22:42;17.20;69.60
48043;DHT22;33988;47.992;8.820;2022-10-16T03:25:11;17.20;69.60
48043;DHT22;33988;47.992;8.820;2022-10-16T03:27:38;17.20;69.60
48043;DHT22;33988;47.992;8.820;2022-10-16T03:30:06;17.20;69.50
48043;DHT22;33988;47.992;8.820;2022-10-16T03:32:33;17.20;69.40
48043;DHT22;33988;47.992;8.820;2022-10-16T03:35:01;17.20;69.40
48043;DHT22;33988;47.992;8.820;2022-10-16T03:37:28;17.20;69.40
48043;DHT22;33988;47.992;8.820;2022-10-16T03:39:55;17.20;69.40
48043;DHT22;33988;47.992;8.820;2022-10-16T03:42:22;17.20;69.40
48043;DHT22;33988;47.992;8.820;2022-10-16T03:44:51;17.10;69.30
48043;DHT22;33988;47.992;8.820;2022-10-16T03:47:18;17.10;69.20
48043;DHT22;33988;47.992;8.820;2022-10-16T03:49:48;17.10;69.20
48043;DHT22;33988;47.992;8.820;2022-10-16T03:52:18;17.10;69.30
48043;DHT22;33988;47.992;8.820;2022-10-16T03:54:48;17.10;69.30
48043;DHT22;33988;47.992;8.820;2022-10-16T03:57:15;17.10;69.30
48043;DHT22;33988;47.992;8.820;2022-10-16T03:59:41;17.10;69.30
48043;DHT22;33988;47.992;8.820;2022-10-16T04:02:11;17.10;69.40
48043;DHT22;33988;47.992;8.820;2022-10-16T04:04:38;17.00;69.30
48043;DHT22;33988;47.992;8.820;2022-10-16T04:07:07;17.00;69.40
48043;DHT22;33988;47.992;8.820;2022-10-16T04:09:37;17.00;69.40
48043;DHT22;33988;47.992;8.820;2022-10-16T04:12:06;17.00;69.50
48043;DHT22;33988;47.992;8.820;2022-10-16T04:14:35;17.00;69.50
48043;DHT22;33988;47.992;8.820;2022-10-16T04:17:02;17.00;69.50
48043;DHT22;33988;47.992;8.820;2022-10-16T04:19:29;17.00;69.50
48043;DHT22;33988;47.992;8.820;2022-10-16T04:21:56;17.00;69.50
48043;DHT22;33988;47.992;8.820;2022-10-16T04:24:23;17.00;69.50
48043;DHT22;33988;47.992;8.820;2022-10-16T04:26:50;17.00;69.50
48043;DHT22;33988;47.992;8.820;2022-10-16T04:29:17;17.00;69.60
48043;DHT22;33988;47.992;8.820;2022-10-16T04:31:46;17.00;69.60
48043;DHT22;33988;47.992;8.820;2022-10-16T04:34:14;17.00;69.60
48043;DHT22;33988;47.992;8.820;2022-10-16T04:36:40;17.00;70.40
48043;DHT22;33988;47.992;8.820;2022-10-16T04:39:10;16.90;69.50
48043;DHT22;33988;47.992;8.820;2022-10-16T04:41:37;16.90;69.60
48043;DHT22;33988;47.992;8.820;2022-10-16T04:44:03;17.00;69.60
48043;DHT22;33988;47.992;8.820;2022-10-16T04:46:35;16.90;69.60
48043;DHT22;33988;47.992;8.820;2022-10-16T04:49:04;16.90;69.60
48043;DHT22;33988;47.992;8.820;2022-10-16T04:51:31;16.90;70.50
48043;DHT22;33988;47.992;8.820;2022-10-16T04:54:03;16.90;69.60
48043;DHT22;33988;47.992;8.820;2022-10-16T04:56:30;16.90;69.60
48043;DHT22;33988;47.992;8.820;2022-10-16T04:58:59;16.90;69.70
48043;DHT22;33988;47.992;8.820;2022-10-16T05:01:26;16.90;69.70
48043;DHT22;33988;47.992;8.820;2022-10-16T05:03:53;16.90;69.70
48043;DHT22;33988;47.992;8.820;2022-10-16T05:06:20;17.00;69.80
48043;DHT22;33988;47.992;8.820;2022-10-16T05:08:49;16.90;69.70
48043;DHT22;33988;47.992;8.820;2022-10-16T05:11:18;16.90;69.80
48043;DHT22;33988;47.992;8.820;2022-10-16T05:13:45;17.00;69.80
48043;DHT22;33988;47.992;8.820;2022-10-16T05:16:11;16.90;69.70
48043;DHT22;33988;47.992;8.820;2022-10-16T05:18:38;17.00;69.80
48043;DHT22;33988;47.992;8.820;2022-10-16T05:21:05;16.90;69.80
48043;DHT22;33988;47.992;8.820;2022-10-16T05:23:32;16.90;69.70
48043;DHT22;33988;47.992;8.820;2022-10-16T05:25:59;16.90;69.70
48043;DHT22;33988;47.992;8.820;2022-10-16T05:28:28;16.90;69.80
48043;DHT22;33988;47.992;8.820;2022-10-16T05:30:59;16.90;69.80
48043;DHT22;33988;47.992;8.820;2022-10-16T05:33:28;16.90;69.80
48043;DHT22;33988;47.992;8.820;2022-10-16T05:36:01;16.90;69.90
48043;DHT22;33988;47.992;8.820;2022-10-16T05:38:29;16.90;69.90
48043;DHT22;33988;47.992;8.820;2022-10-16T05:40:58;16.90;69.90
48043;DHT22;33988;47.992;8.820;2022-10-16T05:43:27;16.90;69.90
48043;DHT22;33988;47.992;8.820;2022-10-16T05:46:03;17.00;70.00
48043;DHT22;33988;47.992;8.820;2022-10-16T05:48:31;16.90;69.90
48043;DHT22;33988;47.992;8.820;2022-10-16T05:51:06;17.00;69.90
48043;DHT22;33988;47.992;8.820;2022-10-16T05:53:37;17.00;69.90
48043;DHT22;33988;47.992;8.820;2022-10-16T05:56:06;16.90;69.90
48043;DHT22;33988;47.992;8.820;2022-10-16T05:58:37;17.00;69.90
48043;DHT22;33988;47.992;8.820;2022-10-16T06:01:13;16.90;69.90
48043;DHT22;33988;47.992;8.820;2022-10-16T06:03:44;16.90;69.90
48043;DHT22;33988;47.992;8.820;2022-10-16T06:06:16;17.00;69.90
48043;DHT22;33988;47.992;8.820;2022-10-16T06:08:50;16.90;69.90
48043;DHT22;33988;47.992;8.820;2022-10-16T06:11:26;16.90;69.90
48043;DHT22;33988;47.992;8.820;2022-10-16T06:13:56;17.00;69.90
48043;DHT22;33988;47.992;8.820;2022-10-16T06:16:35;17.00;69.90
48043;DHT22;33988;47.992;8.820;2022-10-16T06:19:03;17.00;69.90
48043;DHT22;33988;47.992;8.820;2022-10-16T06:21:35;17.00;69.80
48043;DHT22;33988;47.992;8.820;2022-10-16T06:24:05;16.90;69.80
48043;DHT22;33988;47.992;8.820;2022-10-16T06:26:32;17.00;69.80
48043;DHT22;33988;47.992;8.820;2022-10-16T06:29:01;16.90;69.80
48043;DHT22;33988;47.992;8.820;2022-10-16T06:31:29;17.00;69.90
48043;DHT22;33988;47.992;8.820;2022-10-16T06:34:00;16.90;69.90
48043;DHT22;33988;47.992;8.820;2022-10-16T06:36:31;16.90;70.00
48043;DHT22;33988;47.992;8.820;2022-10-16T06:39:00;16.90;70.10
48043;DHT22;33988;47.992;8.820;2022-10-16T06:41:27;17.00;70.10
48043;DHT22;33988;47.992;8.820;2022-10-16T06:43:54;17.00;70.10
48043;DHT22;33988;47.992;8.820;2022-10-16T06:46:26;17.00;71.00
48043;DHT22;33988;47.992;8.820;2022-10-16T06:48:53;17.00;70.20
48043;DHT22;33988;47.992;8.820;2022-10-16T06:51:24;17.00;70.20
48043;DHT22;33988;47.992;8.820;2022-10-16T06:53:55;17.00;70.20
48043;DHT22;33988;47.992;8.820;2022-10-16T06:56:31;17.10;70.30
48043;DHT22;33988;47.992;8.820;2022-10-16T06:59:01;17.10;70.30
48043;DHT22;33988;47.992;8.820;2022-10-16T07:01:31;17.10;70.30
48043;DHT22;33988;47.992;8.820;2022-10-16T07:04:00;17.10;70.30
48043;DHT22;33988;47.992;8.820;2022-10-16T07:06:32;17.10;70.20
48043;DHT22;33988;47.992;8.820;2022-10-16T07:09:02;17.10;70.30
48043;DHT22;33988;47.992;8.820;2022-10-16T07:11:31;17.10;70.20
48043;DHT22;33988;47.992;8.820;2022-10-16T07:13:58;17.10;70.30
48043;DHT22;33988;47.992;8.820;2022-10-16T07:16:28;17.20;70.30
48043;DHT22;33988;47.992;8.820;2022-10-16T07:19:00;17.20;70.30
48043;DHT22;33988;47.992;8.820;2022-10-16T07:21:31;17.20;70.40
48043;DHT22;33988;47.992;8.820;2022-10-16T07:24:03;17.20;70.40
48043;DHT22;33988;47.992;8.820;2022-10-16T07:26:36;17.20;70.40
48043;DHT22;33988;47.992;8.820;2022-10-16T07:29:16;17.20;70.40
48043;DHT22;33988;47.992;8.820;2022-10-16T07:31:45;17.20;70.60
48043;DHT22;33988;47.992;8.820;2022-10-16T07:34:14;17.20;70.50
48043;DHT22;33988;47.992;8.820;2022-10-16T07:36:47;17.20;70.50
48043;DHT22;33988;47.992;8.820;2022-10-16T07:39:15;17.00;71.60
48043;DHT22;33988;47.992;8.820;2022-10-16T07:41:44;17.20;70.60
48043;DHT22;33988;47.992;8.820;2022-10-16T07:44:11;17.20;70.50
48043;DHT22;33988;47.992;8.820;2022-10-16T07:46:38;17.30;70.50
48043;DHT22;33988;47.992;8.820;2022-10-16T07:49:08;17.30;70.60
48043;DHT22;33988;47.992;8.820;2022-10-16T07:51:37;17.30;70.70
48043;DHT22;33988;47.992;8.820;2022-10-16T07:54:09;17.30;70.80
48043;DHT22;33988;47.992;8.820;2022-10-16T07:56:39;17.40;70.90
48043;DHT22;33988;47.992;8.820;2022-10-16T07:59:09;17.40;70.90
48043;DHT22;33988;47.992;8.820;2022-10-16T08:01:39;17.40;70.90
48043;DHT22;33988;47.992;8.820;2022-10-16T08:04:06;17.40;70.80
48043;DHT22;33988;47.992;8.820;2022-10-16T08:06:38;17.50;70.80
48043;DHT22;33988;47.992;8.820;2022-10-16T08:09:07;17.50;70.90
48043;DHT22;33988;47.992;8.820;2022-10-16T08:11:34;17.50;70.80
48043;DHT22;33988;47.992;8.820;2022-10-16T08:14:03;17.50;70.80
48043;DHT22;33988;47.992;8.820;2022-10-16T08:16:30;17.60;70.90
48043;DHT22;33988;47.992;8.820;2022-10-16T08:19:02;17.50;70.80
48043;DHT22;33988;47.992;8.820;2022-10-16T08:21:29;17.60;70.90
48043;DHT22;33988;47.992;8.820;2022-10-16T08:23:56;17.60;70.80
48043;DHT22;33988;47.992;8.820;2022-10-16T08:26:26;17.70;70.90
48043;DHT22;33988;47.992;8.820;2022-10-16T08:28:54;17.70;70.90
48043;DHT22;33988;47.992;8.820;2022-10-16T08:31:22;17.70;70.80
48043;DHT22;33988;47.992;8.820;2022-10-16T08:33:52;17.70;70.70
48043;DHT22;33988;47.992;8.820;2022-10-16T08:36:19;17.80;70.80
48043;DHT22;33988;47.992;8.820;2022-10-16T08:38:49;17.80;70.90
48043;DHT22;33988;47.992;8.820;2022-10-16T08:47:49;17.90;71.30
48043;DHT22;33988;47.992;8.820;2022-10-16T08:50:38;17.90;71.30
48043;DHT22;33988;47.992;8.820;2022-10-16T08:53:09;18.00;71.20
48043;DHT22;33988;47.992;8.820;2022-10-16T08:55:45;18.10;71.30
48043;DHT22;33988;47.992;8.820;2022-10-16T08:58:18;18.10;71.20
48043;DHT22;33988;47.992;8.820;2022-10-16T09:00:53;18.10;71.20
48043;DHT22;33988;47.992;8.820;2022-10-16T09:12:04;18.30;71.00
48043;DHT22;33988;47.992;8.820;2022-10-16T09:20:26;18.50;71.20
48043;DHT22;33988;47.992;8.820;2022-10-16T09:25:35;18.60;71.50
48043;DHT22;33988;47.992;8.820;2022-10-16T09:28:02;18.60;71.40
48043;DHT22;33988;47.992;8.820;2022-10-16T09:30:31;18.70;71.50
48043;DHT22;33988;47.992;8.820;2022-10-16T09:33:01;18.70;71.30
48043;DHT22;33988;47.992;8.820;2022-10-16T09:38:04;18.90;71.50
48043;DHT22;33988;47.992;8.820;2022-10-16T09:40:37;19.00;71.50
48043;DHT22;33988;47.992;8.820;2022-10-16T09:43:15;19.00;71.60
48043;DHT22;33988;47.992;8.820;2022-10-16T09:46:01;19.10;71.70
48043;DHT22;33988;47.992;8.820;2022-10-16T09:48:44;19.20;71.70
48043;DHT22;33988;47.992;8.820;2022-10-16T09:54:01;19.20;71.40
48043;DHT22;33988;47.992;8.820;2022-10-16T09:56:38;19.30;71.20
48043;DHT22;33988;47.992;8.820;2022-10-16T09:59:16;19.40;71.20
48043;DHT22;33988;47.992;8.820;2022-10-16T10:01:52;19.40;71.30
48043;DHT22;33988;47.992;8.820;2022-10-16T10:04:21;19.40;71.20
48043;DHT22;33988;47.992;8.820;2022-10-16T10:06:56;19.50;71.30
48043;DHT22;33988;47.992;8.820;2022-10-16T10:12:04;19.50;71.40
48043;DHT22;33988;47.992;8.820;2022-10-16T10:14:46;19.60;72.40
48043;DHT22;33988;47.992;8.820;2022-10-16T10:17:25;19.70;71.70
48043;DHT22;33988;47.992;8.820;2022-10-16T10:20:00;19.80;71.70
48043;DHT22;33988;47.992;8.820;2022-10-16T10:22:47;19.90;71.80
48043;DHT22;33988;47.992;8.820;2022-10-16T10:25:30;20.00;71.70
48043;DHT22;33988;47.992;8.820;2022-10-16T10:28:18;20.10;71.50
48043;DHT22;33988;47.992;8.820;2022-10-16T10:40:24;20.50;71.00
48043;DHT22;33988;47.992;8.820;2022-10-16T10:42:59;20.60;70.70
48043;DHT22;33988;47.992;8.820;2022-10-16T10:45:46;20.70;70.60
48043;DHT22;33988;47.992;8.820;2022-10-16T10:48:22;20.80;70.20
48043;DHT22;33988;47.992;8.820;2022-10-16T10:51:13;20.90;70.10
48043;DHT22;33988;47.992;8.820;2022-10-16T10:54:05;20.90;69.80
48043;DHT22;33988;47.992;8.820;2022-10-16T11:02:36;21.10;69.40
48043;DHT22;33988;47.992;8.820;2022-10-16T11:05:23;21.20;69.40
48043;DHT22;33988;47.992;8.820;2022-10-16T11:10:45;21.40;68.50
48043;DHT22;33988;47.992;8.820;2022-10-16T11:13:23;21.50;68.60
48043;DHT22;33988;47.992;8.820;2022-10-16T11:15:58;21.30;68.70
48043;DHT22;33988;47.992;8.820;2022-10-16T11:18:39;21.50;68.30
48043;DHT22;33988;47.992;8.820;2022-10-16T11:21:14;21.70;68.10
48043;DHT22;33988;47.992;8.820;2022-10-16T11:23:56;21.70;68.10
48043;DHT22;33988;47.992;8.820;2022-10-16T11:26:47;21.80;68.20
48043;DHT22;33988;47.992;8.820;2022-10-16T11:29:22;21.80;67.20
48043;DHT22;33988;47.992;8.820;2022-10-16T11:31:59;21.90;66.80
48043;DHT22;33988;47.992;8.820;2022-10-16T11:34:39;22.00;66.30
48043;DHT22;33988;47.992;8.820;2022-10-16T11:37:19;22.10;66.20
48043;DHT22;33988;47.992;8.820;2022-10-16T11:39:47;22.10;65.50
48043;DHT22;33988;47.992;8.820;2022-10-16T11:42:34;22.20;65.60
48043;DHT22;33988;47.992;8.820;2022-10-16T11:47:53;22.40;64.70
48043;DHT22;33988;47.992;8.820;2022-10-16T11:53:52;22.60;64.30
48043;DHT22;33988;47.992;8.820;2022-10-16T11:56:25;22.70;64.10
48043;DHT22;33988;47.992;8.820;2022-10-16T11:59:01;22.80;64.00
48043;DHT22;33988;47.992;8.820;2022-10-16T12:04:41;23.00;63.10
48043;DHT22;33988;47.992;8.820;2022-10-16T12:07:24;23.00;63.80
48043;DHT22;33988;47.992;8.820;2022-10-16T12:09:54;23.20;62.80
48043;DHT22;33988;47.992;8.820;2022-10-16T12:12:45;23.20;62.50
48043;DHT22;33988;47.992;8.820;2022-10-16T12:18:25;23.30;62.60
48043;DHT22;33988;47.992;8.820;2022-10-16T12:20:56;23.40;61.10
48043;DHT22;33988;47.992;8.820;2022-10-16T12:23:32;23.40;60.70
48043;DHT22;33988;47.992;8.820;2022-10-16T12:26:00;23.50;60.80
48043;DHT22;33988;47.992;8.820;2022-10-16T12:28:33;23.60;60.60
48043;DHT22;33988;47.992;8.820;2022-10-16T12:31:05;23.70;59.90
48043;DHT22;33988;47.992;8.820;2022-10-16T12:33:36;23.70;59.70
48043;DHT22;33988;47.992;8.820;2022-10-16T12:36:11;23.80;59.40
48043;DHT22;33988;47.992;8.820;2022-10-16T12:38:52;23.60;59.80
48043;DHT22;33988;47.992;8.820;2022-10-16T12:41:35;23.80;58.70
48043;DHT22;33988;47.992;8.820;2022-10-16T12:44:24;23.90;58.50
48043;DHT22;33988;47.992;8.820;2022-10-16T12:46:53;24.00;58.00
48043;DHT22;33988;47.992;8.820;2022-10-16T12:49:22;24.10;58.20
48043;DHT22;33988;47.992;8.820;2022-10-16T12:51:56;24.10;57.90
48043;DHT22;33988;47.992;8.820;2022-10-16T13:00:17;24.20;57.60
48043;DHT22;33988;47.992;8.820;2022-10-16T13:06:13;24.20;57.00
48043;DHT22;33988;47.992;8.820;2022-10-16T13:15:02;24.30;56.40
48043;DHT22;33988;47.992;8.820;2022-10-16T13:18:00;24.30;56.00
48043;DHT22;33988;47.992;8.820;2022-10-16T13:29:08;24.40;54.90
48043;DHT22;33988;47.992;8.820;2022-10-16T13:31:38;24.40;55.40
48043;DHT22;33988;47.992;8.820;2022-10-16T13:34:06;24.50;55.10
48043;DHT22;33988;47.992;8.820;2022-10-16T13:36:56;24.50;54.90
48043;DHT22;33988;47.992;8.820;2022-10-16T13:39:29;24.40;54.30
48043;DHT22;33988;47.992;8.820;2022-10-16T13:44:54;24.40;54.20
48043;DHT22;33988;47.992;8.820;2022-10-16T13:47:27;24.40;54.30
48043;DHT22;33988;47.992;8.820;2022-10-16T13:50:04;24.40;53.80
48043;DHT22;33988;47.992;8.820;2022-10-16T13:52:41;24.40;54.10
48043;DHT22;33988;47.992;8.820;2022-10-16T13:55:17;24.40;54.20
48043;DHT22;33988;47.992;8.820;2022-10-16T13:57:45;24.30;54.00
48043;DHT22;33988;47.992;8.820;2022-10-16T14:00:26;24.30;54.10
48043;DHT22;33988;47.992;8.820;2022-10-16T14:03:07;24.30;53.70
48043;DHT22;33988;47.992;8.820;2022-10-16T14:05:46;24.30;53.80
48043;DHT22;33988;47.992;8.820;2022-10-16T14:08:17;24.30;54.00
48043;DHT22;33988;47.992;8.820;2022-10-16T14:10:53;24.30;54.10
48043;DHT22;33988;47.992;8.820;2022-10-16T14:13:34;24.20;53.80
48043;DHT22;33988;47.992;8.820;2022-10-16T14:16:09;24.20;53.90
48043;DHT22;33988;47.992;8.820;2022-10-16T14:18:38;24.20;53.90
48043;DHT22;33988;47.992;8.820;2022-10-16T14:21:12;24.20;54.10
48043;DHT22;33988;47.992;8.820;2022-10-16T14:23:41;24.20;54.20
48043;DHT22;33988;47.992;8.820;2022-10-16T14:28:37;24.20;54.40
48043;DHT22;33988;47.992;8.820;2022-10-16T14:33:46;24.00;54.20
48043;DHT22;33988;47.992;8.820;2022-10-16T14:36:18;24.10;54.60
48043;DHT22;33988;47.992;8.820;2022-10-16T14:39:05;24.00;54.50
48043;DHT22;33988;47.992;8.820;2022-10-16T14:41:41;24.00;54.50
48043;DHT22;33988;47.992;8.820;2022-10-16T14:44:16;24.00;54.50
48043;DHT22;33988;47.992;8.820;2022-10-16T14:46:49;24.00;54.60
48043;DHT22;33988;47.992;8.820;2022-10-16T14:49:20;23.90;54.70
48043;DHT22;33988;47.992;8.820;2022-10-16T14:51:47;23.90;54.90
48043;DHT22;33988;47.992;8.820;2022-10-16T14:54:16;23.90;55.00
48043;DHT22;33988;47.992;8.820;2022-10-16T14:56:48;23.90;54.90
48043;DHT22;33988;47.992;8.820;2022-10-16T14:59:30;23.80;54.90
48043;DHT22;33988;47.992;8.820;2022-10-16T15:04:47;23.70;55.60
48043;DHT22;33988;47.992;8.820;2022-10-16T15:07:19;23.70;56.10
48043;DHT22;33988;47.992;8.820;2022-10-16T15:09:47;23.60;56.40
48043;DHT22;33988;47.992;8.820;2022-10-16T15:12:17;23.50;56.10
48043;DHT22;33988;47.992;8.820;2022-10-16T15:14:44;23.50;56.40
48043;DHT22;33988;47.992;8.820;2022-10-16T15:17:11;23.40;56.80
48043;DHT22;33988;47.992;8.820;2022-10-16T15:19:40;23.40;57.10
48043;DHT22;33988;47.992;8.820;2022-10-16T15:22:11;23.30;57.30
48043;DHT22;33988;47.992;8.820;2022-10-16T15:24:38;23.30;57.60
48043;DHT22;33988;47.992;8.820;2022-10-16T15:27:08;23.20;57.80
48043;DHT22;33988;47.992;8.820;2022-10-16T15:29:35;23.10;58.20
48043;DHT22;33988;47.992;8.820;2022-10-16T15:32:05;23.10;59.20
48043;DHT22;33988;47.992;8.820;2022-10-16T15:34:32;23.00;58.70
48043;DHT22;33988;47.992;8.820;2022-10-16T15:37:06;22.90;58.90
48043;DHT22;33988;47.992;8.820;2022-10-16T15:39:35;22.90;59.20
48043;DHT22;33988;47.992;8.820;2022-10-16T15:42:06;22.80;59.30
48043;DHT22;33988;47.992;8.820;2022-10-16T15:44:33;22.70;59.40
48043;DHT22;33988;47.992;8.820;2022-10-16T15:47:03;22.70;59.50
48043;DHT22;33988;47.992;8.820;2022-10-16T15:49:32;22.60;59.60
48043;DHT22;33988;47.992;8.820;2022-10-16T15:52:03;22.60;59.70
48043;DHT22;33988;47.992;8.820;2022-10-16T15:54:30;22.50;59.50
48043;DHT22;33988;47.992;8.820;2022-10-16T15:56:57;22.50;59.50
48043;DHT22;33988;47.992;8.820;2022-10-16T15:59:24;22.50;59.50
48043;DHT22;33988;47.992;8.820;2022-10-16T16:01:51;22.50;59.50
48043;DHT22;33988;47.992;8.820;2022-10-16T16:04:23;22.50;59.60
48043;DHT22;33988;47.992;8.820;2022-10-16T16:07:10;22.50;59.80
48043;DHT22;33988;47.992;8.820;2022-10-16T16:09:37;22.50;59.90
48043;DHT22;33988;47.992;8.820;2022-10-16T16:12:04;22.50;60.00
48043;DHT22;33988;47.992;8.820;2022-10-16T16:14:31;22.40;60.10
48043;DHT22;33988;47.992;8.820;2022-10-16T16:16:59;22.40;60.40
48043;DHT22;33988;47.992;8.820;2022-10-16T16:19:26;22.40;60.40
48043;DHT22;33988;47.992;8.820;2022-10-16T16:21:53;22.30;60.60
48043;DHT22;33988;47.992;8.820;2022-10-16T16:24:20;22.20;60.70
48043;DHT22;33988;47.992;8.820;2022-10-16T16:26:47;22.10;60.70
48043;DHT22;33988;47.992;8.820;2022-10-16T16:29:16;22.10;60.90
48043;DHT22;33988;47.992;8.820;2022-10-16T16:31:43;22.00;61.00
48043;DHT22;33988;47.992;8.820;2022-10-16T16:34:10;21.90;61.20
48043;DHT22;33988;47.992;8.820;2022-10-16T16:36:40;21.80;61.20
48043;DHT22;33988;47.992;8.820;2022-10-16T16:39:07;21.80;61.40
48043;DHT22;33988;47.992;8.820;2022-10-16T16:41:37;21.70;61.60
48043;DHT22;33988;47.992;8.820;2022-10-16T16:44:08;21.60;61.70
48043;DHT22;33988;47.992;8.820;2022-10-16T16:46:36;21.50;61.80
48043;DHT22;33988;47.992;8.820;2022-10-16T16:49:06;21.50;61.90
48043;DHT22;33988;47.992;8.820;2022-10-16T16:51:36;21.40;62.10
48043;DHT22;33988;47.992;8.820;2022-10-16T16:54:06;21.40;62.20
48043;DHT22;33988;47.992;8.820;2022-10-16T16:56:35;21.30;62.20
48043;DHT22;33988;47.992;8.820;2022-10-16T16:59:02;21.20;62.30
48043;DHT22;33988;47.992;8.820;2022-10-16T17:01:33;21.20;62.40
48043;DHT22;33988;47.992;8.820;2022-10-16T17:04:00;21.10;63.40
48043;DHT22;33988;47.992;8.820;2022-10-16T17:06:29;21.00;62.60
48043;DHT22;33988;47.992;8.820;2022-10-16T17:08:56;21.00;62.70
48043;DHT22;33988;47.992;8.820;2022-10-16T17:11:26;20.90;62.80
48043;DHT22;33988;47.992;8.820;2022-10-16T17:13:59;20.90;63.00
48043;DHT22;33988;47.992;8.820;2022-10-16T17:16:32;20.80;63.00
48043;DHT22;33988;47.992;8.820;2022-10-16T17:19:11;20.70;63.10
48043;DHT22;33988;47.992;8.820;2022-10-16T17:21:43;20.70;63.20
48043;DHT22;33988;47.992;8.820;2022-10-16T17:24:12;20.60;63.20
48043;DHT22;33988;47.992;8.820;2022-10-16T17:26:41;20.50;63.20
48043;DHT22;33988;47.992;8.820;2022-10-16T17:29:15;20.30;63.50
48043;DHT22;33988;47.992;8.820;2022-10-16T17:31:45;20.40;63.40
48043;DHT22;33988;47.992;8.820;2022-10-16T17:34:15;20.40;63.40
48043;DHT22;33988;47.992;8.820;2022-10-16T17:36:42;20.30;63.60
48043;DHT22;33988;47.992;8.820;2022-10-16T17:39:15;20.30;63.70
48043;DHT22;33988;47.992;8.820;2022-10-16T17:41:44;20.20;64.60
48043;DHT22;33988;47.992;8.820;2022-10-16T17:44:21;20.20;63.90
48043;DHT22;33988;47.992;8.820;2022-10-16T17:46:52;20.10;64.00